createdAt,value
2019-01-23T00:01:59.026Z,22.33
2019-01-23T00:04:49.305Z,24.37
2019-01-23T00:07:40.049Z,23.47
2019-01-23T00:10:30.408Z,22.97
2019-01-23T00:13:20.757Z,22.43
2019-01-23T00:16:10.937Z,22.30
2019-01-23T00:19:01.357Z,23.37
2019-01-23T00:21:51.750Z,20.83
2019-01-23T00:24:42.172Z,22.10
2019-01-23T00:27:32.422Z,24.53
2019-01-23T00:30:22.742Z,22.03
2019-01-23T00:33:13.610Z,22.77
2019-01-23T00:36:03.850Z,22.73
2019-01-23T00:38:54.197Z,23.83
2019-01-23T00:41:44.373Z,22.10
2019-01-23T00:44:35.099Z,22.20
2019-01-23T00:47:25.066Z,22.63
2019-01-23T00:50:16.086Z,23.00
2019-01-23T00:53:06.773Z,22.47
2019-01-23T00:55:57.012Z,22.80
2019-01-23T00:58:49.227Z,23.20
2019-01-23T01:01:39.094Z,22.03
2019-01-23T01:04:29.569Z,22.53
2019-01-23T01:07:20.143Z,22.87
2019-01-23T01:10:11.821Z,21.53
2019-01-23T01:13:02.058Z,22.13
2019-01-23T01:15:52.093Z,23.50
2019-01-23T01:18:42.111Z,23.07
2019-01-23T01:21:32.402Z,23.70
2019-01-23T01:24:22.586Z,21.50
2019-01-23T01:27:13.104Z,22.13
2019-01-23T01:30:03.466Z,23.13
2019-01-23T01:32:55.013Z,23.27
2019-01-23T01:35:44.989Z,23.83
2019-01-23T01:38:37.094Z,24.83
2019-01-23T01:41:27.658Z,25.10
2019-01-23T01:44:17.754Z,25.50
2019-01-23T01:47:07.785Z,25.37
2019-01-23T01:49:57.863Z,26.60
2019-01-23T01:52:48.496Z,26.03
2019-01-23T01:55:38.810Z,25.43
2019-01-23T01:58:29.255Z,24.60
2019-01-23T02:01:19.693Z,26.33
2019-01-23T02:04:09.780Z,26.13
2019-01-23T02:06:59.993Z,26.73
2019-01-23T02:09:51.222Z,24.60
2019-01-23T02:12:41.494Z,25.17
2019-01-23T02:15:31.569Z,24.50
2019-01-23T02:18:21.904Z,25.70
2019-01-23T02:21:12.206Z,23.53
2019-01-23T02:24:02.621Z,24.90
2019-01-23T02:26:52.695Z,23.70
2019-01-23T02:29:42.914Z,24.57
2019-01-23T02:32:33.277Z,24.60
2019-01-23T02:35:23.638Z,25.47
2019-01-23T02:38:14.378Z,23.27
2019-01-23T02:41:04.658Z,24.80
2019-01-23T02:43:54.824Z,23.03
2019-01-23T02:46:44.874Z,22.50
2019-01-23T02:49:34.886Z,21.93
2019-01-23T02:52:24.966Z,22.43
2019-01-23T02:55:15.510Z,21.67
2019-01-23T02:58:06.491Z,20.93
2019-01-23T03:00:56.738Z,20.90
2019-01-23T03:03:46.943Z,20.67
2019-01-23T03:06:37.139Z,20.33
2019-01-23T03:09:27.247Z,21.27
2019-01-23T03:12:19.285Z,19.13
2019-01-23T03:15:10.890Z,20.83
2019-01-23T03:18:01.301Z,20.57
2019-01-23T03:20:51.701Z,19.80
2019-01-23T03:23:42.133Z,20.13
2019-01-23T03:26:32.202Z,19.30
2019-01-23T03:29:24.672Z,21.47
2019-01-23T03:32:14.555Z,21.03
2019-01-23T03:35:05.802Z,22.17
2019-01-23T03:37:56.337Z,23.40
2019-01-23T03:40:46.498Z,22.77
2019-01-23T03:43:37.363Z,23.00
2019-01-23T03:46:27.653Z,22.03
2019-01-23T03:49:18.558Z,20.43
2019-01-23T03:52:08.840Z,22.63
2019-01-23T03:54:59.126Z,22.60
2019-01-23T03:57:49.435Z,22.50
2019-01-23T04:00:39.470Z,21.70
2019-01-23T04:03:29.774Z,21.23
2019-01-23T04:06:20.074Z,22.93
2019-01-23T04:09:10.117Z,21.70
2019-01-23T04:12:00.442Z,21.43
2019-01-23T04:14:50.445Z,20.93
2019-01-23T04:17:40.813Z,21.70
2019-01-23T04:20:31.994Z,21.97
2019-01-23T04:23:22.219Z,21.47
2019-01-23T04:26:12.580Z,19.93
2019-01-23T04:29:03.129Z,19.27
2019-01-23T04:31:53.479Z,20.43
2019-01-23T04:34:43.786Z,19.43
2019-01-23T04:37:34.285Z,18.90
2019-01-23T04:40:24.239Z,18.77
2019-01-23T04:43:14.563Z,16.33
2019-01-23T04:46:04.877Z,17.23
2019-01-23T04:48:55.125Z,17.10
2019-01-23T04:52:07.400Z,16.03
2019-01-23T04:54:57.401Z,16.10
2019-01-23T04:57:47.627Z,15.03
2019-01-23T05:00:38.677Z,15.77
2019-01-23T05:03:29.014Z,14.80
2019-01-23T05:06:19.134Z,14.33
2019-01-23T05:09:10.050Z,14.90
2019-01-23T05:12:00.022Z,15.40
2019-01-23T05:14:50.386Z,15.13
2019-01-23T05:17:40.923Z,14.77
2019-01-23T05:20:31.182Z,14.73
2019-01-23T05:23:21.233Z,15.67
2019-01-23T05:26:11.347Z,14.17
2019-01-23T05:29:01.370Z,13.57
2019-01-23T05:31:51.631Z,14.87
2019-01-23T05:34:41.942Z,13.93
2019-01-23T05:37:32.221Z,14.40
2019-01-23T05:40:22.234Z,14.33
2019-01-23T05:43:12.462Z,14.43
2019-01-23T05:46:02.925Z,14.00
2019-01-23T05:48:53.699Z,14.23
2019-01-23T05:51:43.971Z,15.10
2019-01-23T05:54:33.998Z,15.13
2019-01-23T05:57:24.290Z,14.93
2019-01-23T06:00:16.785Z,16.07
2019-01-23T06:03:07.054Z,16.70
2019-01-23T06:05:57.330Z,16.53
2019-01-23T06:08:47.347Z,18.37
2019-01-23T06:11:37.713Z,17.97
2019-01-23T06:14:28.043Z,18.83
2019-01-23T06:17:18.042Z,17.90
2019-01-23T06:20:11.706Z,18.17
2019-01-23T06:23:02.177Z,18.40
2019-01-23T06:25:52.478Z,17.83
2019-01-23T06:28:42.381Z,18.43
2019-01-23T06:31:32.719Z,20.00
2019-01-23T06:34:23.069Z,19.90
2019-01-23T06:37:13.350Z,19.80
2019-01-23T06:40:05.353Z,20.40
2019-01-23T06:42:56.572Z,20.77
2019-01-23T06:45:46.518Z,20.90
2019-01-23T06:48:37.683Z,19.27
2019-01-23T06:51:27.785Z,20.07
2019-01-23T06:54:17.981Z,20.67
2019-01-23T06:57:08.158Z,19.13
2019-01-23T06:59:58.401Z,19.37
2019-01-23T07:02:48.943Z,17.83
2019-01-23T07:05:39.242Z,19.40
2019-01-23T07:08:29.278Z,19.27
2019-01-23T07:11:19.774Z,20.37
2019-01-23T07:14:18.947Z,21.33
2019-01-23T07:17:11.922Z,19.47
2019-01-23T07:20:02.262Z,20.73
2019-01-23T07:22:52.423Z,19.90
2019-01-23T07:25:51.686Z,20.33
2019-01-23T07:28:41.949Z,19.07
2019-01-23T07:31:32.470Z,19.33
2019-01-23T07:34:22.918Z,19.57
2019-01-23T07:37:12.981Z,19.07
2019-01-23T07:40:03.296Z,19.10
2019-01-23T07:42:53.411Z,19.60
2019-01-23T07:45:43.774Z,18.77
2019-01-23T07:48:33.693Z,19.70
2019-01-23T07:51:24.190Z,19.13
2019-01-23T07:54:14.065Z,19.90
2019-01-23T07:57:04.260Z,20.23
2019-01-23T07:59:55.250Z,18.97
2019-01-23T08:02:45.658Z,19.43
2019-01-23T08:05:35.942Z,19.00
2019-01-23T08:08:26.338Z,19.10
2019-01-23T08:11:16.386Z,19.00
2019-01-23T08:14:06.870Z,18.20
2019-01-23T08:16:57.609Z,17.97
2019-01-23T08:19:47.694Z,18.87
2019-01-23T08:22:37.968Z,19.80
2019-01-23T08:25:28.200Z,20.53
2019-01-23T08:28:18.535Z,19.37
2019-01-23T08:31:09.035Z,18.67
2019-01-23T08:33:59.388Z,19.33
2019-01-23T08:36:49.273Z,17.70
2019-01-23T08:39:39.594Z,19.60
2019-01-23T08:42:29.682Z,17.07
2019-01-23T08:45:19.694Z,17.90
2019-01-23T08:48:10.289Z,17.63
2019-01-23T08:51:00.621Z,18.03
2019-01-23T08:53:50.967Z,18.30
2019-01-23T08:56:41.522Z,18.70
2019-01-23T08:59:32.138Z,18.07
2019-01-23T09:02:22.470Z,17.67
2019-01-23T09:05:13.539Z,20.53
2019-01-23T09:08:03.594Z,19.70
2019-01-23T09:10:53.687Z,20.07
2019-01-23T09:13:43.962Z,18.60
2019-01-23T09:16:34.874Z,20.83
2019-01-23T09:19:24.975Z,18.57
2019-01-23T09:22:15.311Z,18.83
2019-01-23T09:25:07.495Z,17.93
2019-01-23T09:27:57.850Z,18.70
2019-01-23T09:31:28.746Z,20.60
2019-01-23T09:34:35.547Z,20.10
2019-01-23T09:38:16.199Z,19.00
2019-01-23T09:41:13.023Z,20.27
2019-01-23T09:44:40.181Z,19.83
2019-01-23T09:47:52.414Z,20.67
2019-01-23T09:51:11.631Z,20.00
2019-01-23T09:54:07.375Z,20.43
2019-01-23T09:56:57.426Z,18.73
2019-01-23T09:59:48.347Z,18.70
2019-01-23T10:02:38.690Z,19.43
2019-01-23T10:05:29.089Z,18.67
2019-01-23T10:08:19.493Z,19.63
2019-01-23T10:11:09.890Z,19.00
2019-01-23T10:14:00.010Z,20.13
2019-01-23T10:16:49.976Z,18.93
2019-01-23T10:19:41.298Z,19.30
2019-01-23T10:22:31.570Z,19.70
2019-01-23T10:25:21.812Z,18.43
2019-01-23T10:28:11.854Z,18.03
2019-01-23T10:31:06.572Z,19.10
2019-01-23T10:33:53.646Z,18.00
2019-01-23T10:36:43.902Z,16.80
2019-01-23T10:39:34.439Z,18.83
2019-01-23T10:42:24.999Z,17.53
2019-01-23T10:45:15.313Z,17.73
2019-01-23T10:48:05.789Z,18.83
2019-01-23T10:50:56.514Z,18.00
2019-01-23T10:53:46.525Z,18.80
2019-01-23T10:56:37.791Z,19.03
2019-01-23T10:59:27.690Z,18.13
2019-01-23T11:02:18.537Z,18.87
2019-01-23T11:05:10.828Z,17.93
2019-01-23T11:08:01.287Z,18.57
2019-01-23T11:10:51.413Z,18.60
2019-01-23T11:13:41.509Z,18.20
2019-01-23T11:16:31.678Z,18.57
2019-01-23T11:19:21.801Z,19.40
2019-01-23T11:22:12.077Z,21.60
2019-01-23T11:25:02.294Z,20.67
2019-01-23T11:27:53.446Z,21.37
2019-01-23T11:30:44.996Z,21.13
2019-01-23T11:33:34.926Z,21.33
2019-01-23T11:36:24.941Z,22.67
2019-01-23T11:39:15.066Z,22.20
2019-01-23T11:42:06.149Z,23.30
2019-01-23T11:44:56.342Z,23.30
2019-01-23T11:47:46.918Z,22.97
2019-01-23T11:50:37.101Z,22.40
2019-01-23T11:53:27.042Z,22.57
2019-01-23T11:56:17.345Z,22.77
2019-01-23T11:59:07.633Z,21.83
2019-01-23T12:01:58.058Z,20.87
2019-01-23T12:04:48.346Z,20.07
2019-01-23T12:07:38.261Z,20.70
2019-01-23T12:10:28.597Z,19.90
2019-01-23T12:13:18.726Z,19.53
2019-01-23T12:16:09.011Z,19.77
2019-01-23T12:18:59.177Z,20.33
2019-01-23T12:21:49.257Z,19.50
2019-01-23T12:24:39.214Z,19.63
2019-01-23T12:27:29.406Z,17.90
2019-01-23T12:30:22.765Z,19.00
2019-01-23T12:33:12.860Z,18.63
2019-01-23T12:36:03.168Z,18.37
2019-01-23T12:38:53.542Z,18.60
2019-01-23T12:41:43.820Z,18.90
2019-01-23T12:44:34.253Z,18.23
2019-01-23T12:47:24.506Z,18.77
2019-01-23T12:50:16.257Z,17.40
2019-01-23T12:53:06.569Z,19.13
2019-01-23T12:55:57.501Z,17.93
2019-01-23T12:58:47.806Z,18.87
2019-01-23T13:01:42.238Z,18.50
2019-01-23T13:04:30.225Z,19.00
2019-01-23T13:07:20.226Z,18.57
2019-01-23T13:10:14.193Z,19.47
2019-01-23T13:13:04.358Z,18.70
2019-01-23T13:15:54.198Z,18.37
2019-01-23T13:18:44.198Z,18.33
2019-01-23T13:21:34.517Z,18.30
2019-01-23T13:24:24.762Z,18.90
2019-01-23T13:27:14.935Z,18.07
2019-01-23T13:30:07.009Z,19.50
2019-01-23T13:32:57.301Z,19.33
2019-01-23T13:35:47.614Z,19.03
2019-01-23T13:38:37.583Z,18.53
2019-01-23T13:41:27.896Z,19.33
2019-01-23T13:44:18.251Z,17.43
2019-01-23T13:47:08.290Z,17.10
2019-01-23T13:49:58.334Z,18.03
2019-01-23T13:52:48.514Z,18.80
2019-01-23T13:55:38.945Z,18.97
2019-01-23T13:58:29.354Z,18.03
2019-01-23T14:01:19.425Z,17.87
2019-01-23T14:04:09.332Z,18.70
2019-01-23T14:06:59.465Z,19.67
2019-01-23T14:09:49.719Z,19.23
2019-01-23T14:12:40.017Z,19.73
2019-01-23T14:15:35.683Z,20.93
2019-01-23T14:18:25.686Z,19.13
2019-01-23T14:21:15.978Z,19.60
2019-01-23T14:24:06.382Z,19.33
2019-01-23T14:26:56.686Z,18.43
2019-01-23T14:29:46.957Z,20.50
2019-01-23T14:32:37.370Z,21.13
2019-01-23T14:35:27.999Z,20.13
2019-01-23T14:38:18.114Z,19.90
2019-01-23T14:41:08.455Z,20.30
2019-01-23T14:43:59.147Z,20.40
2019-01-23T14:46:49.481Z,19.63
2019-01-23T14:49:39.710Z,20.67
2019-01-23T14:52:29.874Z,21.10
2019-01-23T14:55:20.087Z,18.70
2019-01-23T14:58:10.446Z,20.17
2019-01-23T15:01:00.955Z,22.63
2019-01-23T15:03:51.418Z,21.00
2019-01-23T15:06:41.826Z,20.67
2019-01-23T15:09:32.034Z,20.53
2019-01-23T15:12:22.338Z,21.00
2019-01-23T15:15:12.574Z,21.23
2019-01-23T15:18:02.598Z,22.80
2019-01-23T15:20:52.797Z,22.50
2019-01-23T15:23:42.981Z,23.13
2019-01-23T15:26:33.594Z,23.07
2019-01-23T15:29:23.706Z,24.00
2019-01-23T15:32:17.301Z,23.43
2019-01-23T15:35:06.806Z,23.00
2019-01-23T15:37:56.934Z,22.47
2019-01-23T15:40:46.946Z,23.13
2019-01-23T15:43:37.114Z,21.97
2019-01-23T15:46:27.444Z,20.67
2019-01-23T15:49:17.862Z,26.97
2019-01-23T15:52:08.054Z,22.63
2019-01-23T15:54:58.534Z,24.63
2019-01-23T15:57:48.567Z,26.10
2019-01-23T16:00:39.042Z,27.67
2019-01-23T16:03:29.474Z,28.60
2019-01-23T16:06:19.902Z,28.93
2019-01-23T16:09:10.251Z,30.33
2019-01-23T16:12:00.210Z,29.53
2019-01-23T16:14:50.266Z,31.03
2019-01-23T16:17:40.584Z,32.80
2019-01-23T16:20:30.816Z,32.17
2019-01-23T16:23:21.007Z,31.03
2019-01-23T16:26:11.153Z,32.53
2019-01-23T16:29:01.489Z,32.43
2019-01-23T16:31:51.921Z,31.73
2019-01-23T16:34:42.157Z,32.97
2019-01-23T16:37:32.146Z,32.37
2019-01-23T16:40:22.071Z,31.27
2019-01-23T16:43:12.353Z,31.17
2019-01-23T16:46:02.385Z,28.10
2019-01-23T16:48:52.438Z,30.43
2019-01-23T16:51:43.101Z,31.30
2019-01-23T16:54:33.571Z,33.57
2019-01-23T16:57:23.740Z,31.23
2019-01-23T17:00:16.970Z,32.23
2019-01-23T17:03:07.358Z,34.13
2019-01-23T17:05:57.835Z,33.83
2019-01-23T17:08:48.055Z,34.10
2019-01-23T17:11:38.494Z,34.13
2019-01-23T17:14:29.178Z,34.33
2019-01-23T17:17:19.374Z,33.60
2019-01-23T17:20:14.190Z,35.77
2019-01-23T17:23:05.126Z,37.63
2019-01-23T17:25:55.374Z,38.80
2019-01-23T17:28:45.842Z,38.27
2019-01-23T17:31:36.759Z,36.73
2019-01-23T17:34:26.942Z,38.60
2019-01-23T17:37:17.196Z,35.33
2019-01-23T17:40:09.506Z,34.70
2019-01-23T17:42:59.721Z,34.20
2019-01-23T17:45:50.134Z,32.97
2019-01-23T17:48:41.085Z,33.27
2019-01-23T17:51:31.439Z,32.70
2019-01-23T17:54:21.534Z,31.90
2019-01-23T17:57:11.546Z,31.50
2019-01-23T18:00:01.843Z,31.03
2019-01-23T18:02:52.864Z,31.53
2019-01-23T18:05:43.826Z,29.63
2019-01-23T18:08:34.018Z,31.10
2019-01-23T18:11:24.459Z,28.03
2019-01-23T18:14:14.550Z,27.43
2019-01-23T18:17:06.425Z,29.37
2019-01-23T18:19:56.618Z,28.23
2019-01-23T18:22:46.845Z,28.00
2019-01-23T18:25:37.491Z,28.13
2019-01-23T18:28:27.430Z,28.47
2019-01-23T18:31:29.136Z,26.37
2019-01-23T18:35:01.273Z,27.90
2019-01-23T18:38:23.250Z,29.53
2019-01-23T18:42:06.598Z,28.77
2019-01-23T18:45:06.867Z,31.17
2019-01-23T18:48:39.668Z,28.67
2019-01-23T18:51:41.913Z,30.10
2019-01-23T18:54:32.525Z,28.23
2019-01-23T18:57:25.598Z,29.27
2019-01-23T19:00:19.270Z,29.43
2019-01-23T19:03:09.717Z,30.13
2019-01-23T19:06:00.246Z,29.53
2019-01-23T19:08:50.537Z,27.83
2019-01-23T19:11:40.842Z,28.50
2019-01-23T19:14:31.093Z,28.87
2019-01-23T19:17:21.365Z,27.80
2019-01-23T19:20:15.690Z,26.90
2019-01-23T19:23:06.234Z,27.60
2019-01-23T19:25:56.787Z,27.57
2019-01-23T19:28:46.878Z,26.93
2019-01-23T19:31:37.061Z,27.23
2019-01-23T19:34:27.210Z,26.97
2019-01-23T19:37:17.662Z,25.53
2019-01-23T19:40:11.011Z,28.73
2019-01-23T19:43:01.082Z,27.47
2019-01-23T19:45:51.378Z,24.97
2019-01-23T19:48:41.860Z,28.13
2019-01-23T19:51:31.754Z,26.97
2019-01-23T19:54:22.673Z,27.00
2019-01-23T19:57:14.061Z,26.73
2019-01-23T20:00:05.310Z,28.40
2019-01-23T20:02:55.523Z,28.97
2019-01-23T20:05:45.850Z,28.33
2019-01-23T20:08:36.774Z,26.93
2019-01-23T20:11:27.061Z,25.20
2019-01-23T20:14:17.402Z,27.50
2019-01-23T20:17:07.941Z,27.40
2019-01-23T20:19:58.251Z,27.37
2019-01-23T20:22:48.366Z,27.13
2019-01-23T20:25:38.241Z,30.43
2019-01-23T20:28:28.633Z,27.47
2019-01-23T20:31:18.697Z,27.73
2019-01-23T20:34:08.803Z,26.77
2019-01-23T20:36:59.101Z,28.00
2019-01-23T20:39:49.534Z,27.50
2019-01-23T20:42:39.626Z,26.97
2019-01-23T20:45:30.086Z,29.57
2019-01-23T20:48:20.554Z,29.43
2019-01-23T20:51:10.610Z,30.53
2019-01-23T20:54:01.333Z,29.63
2019-01-23T20:56:51.601Z,31.13
2019-01-23T20:59:41.653Z,30.47
2019-01-23T21:02:32.022Z,30.00
2019-01-23T21:05:21.963Z,31.23
2019-01-23T21:08:12.334Z,31.57
2019-01-23T21:11:02.501Z,30.77
2019-01-23T21:13:52.956Z,31.73
2019-01-23T21:16:43.066Z,31.87
2019-01-23T21:19:33.314Z,30.17
2019-01-23T21:22:23.494Z,29.83
2019-01-23T21:25:14.278Z,29.30
2019-01-23T21:28:04.358Z,29.87
2019-01-23T21:30:54.432Z,28.00
2019-01-23T21:33:44.742Z,28.13
2019-01-23T21:36:35.534Z,27.97
2019-01-23T21:39:25.594Z,28.30
2019-01-23T21:42:15.786Z,30.30
2019-01-23T21:45:07.485Z,29.60
2019-01-23T21:47:58.138Z,29.63
2019-01-23T21:50:48.400Z,28.63
2019-01-23T21:53:38.385Z,28.10
2019-01-23T21:56:28.714Z,27.37
2019-01-23T21:59:18.905Z,28.20
2019-01-23T22:02:09.209Z,27.50
2019-01-23T22:04:59.334Z,31.63
2019-01-23T22:07:49.630Z,29.53
2019-01-23T22:10:39.795Z,29.13
2019-01-23T22:13:30.226Z,31.37
2019-01-23T22:16:20.522Z,29.30
2019-01-23T22:19:10.785Z,31.07
2019-01-23T22:22:01.053Z,30.73
2019-01-23T22:24:51.458Z,31.57
2019-01-23T22:27:41.806Z,31.30
2019-01-23T22:30:33.175Z,31.23
2019-01-23T22:33:23.468Z,30.07
2019-01-23T22:36:13.479Z,30.50
2019-01-23T22:39:05.273Z,31.07
2019-01-23T22:41:56.753Z,29.43
2019-01-23T22:44:47.493Z,29.93
2019-01-23T22:47:37.713Z,30.17
2019-01-23T22:50:28.925Z,30.60
2019-01-23T22:53:19.174Z,31.67
2019-01-23T22:56:09.523Z,29.53
2019-01-23T22:58:59.856Z,29.80
2019-01-23T23:01:50.159Z,30.17
2019-01-23T23:04:40.187Z,29.70
2019-01-23T23:07:30.253Z,29.20
2019-01-23T23:10:20.274Z,29.03
2019-01-23T23:13:11.065Z,27.90
2019-01-23T23:16:01.518Z,29.83
2019-01-23T23:18:51.602Z,29.30
2019-01-23T23:21:41.681Z,30.53
2019-01-23T23:24:31.770Z,28.33
2019-01-23T23:27:21.966Z,29.97
2019-01-23T23:30:13.249Z,27.27
2019-01-23T23:33:03.241Z,28.20
2019-01-23T23:35:53.513Z,29.60
2019-01-23T23:38:43.785Z,27.77
2019-01-23T23:41:34.101Z,30.23
2019-01-23T23:44:24.573Z,28.27
2019-01-23T23:47:14.737Z,28.90
2019-01-23T23:50:05.290Z,28.80
2019-01-23T23:52:55.209Z,28.33
2019-01-23T23:55:45.465Z,28.93
2019-01-23T23:58:35.354Z,28.87
